WetterOnline ( https://www.wetteronline.de )

Wetter aktuell Trier

Aktuelles Wetter: Trier/Petrisberg (273m)

6-stündlich | Neueste Meldungen
Ortszeit Temperatur Wetter
Mi, 05.10. 8:00 9.8° C Nebel
Mi, 05.10. 2:00 9.1° C Nebel
Di, 04.10. 20:00 12.6° C fast wolkenlos
Di, 04.10. 14:00 15.0° C leicht bewölkt
Di, 04.10. 8:00 5.2° C Nebel
Di, 04.10. 2:00 6.9° C Nebel
Mo, 03.10. 20:00 11.4° C bedeckt
Mo, 03.10. 14:00 12.2° C wolkig
Ortszeit Temperatur Wetter
Mi, 05.10. 11:00 13.0° C bewölkt
Mi, 05.10. 10:50 13.0° C bewölkt
Mi, 05.10. 10:40 12.0° C bedeckt
Mi, 05.10. 10:30 11.7° C bedeckt
Mi, 05.10. 10:20 11.7° C bedeckt
Mi, 05.10. 10:10 11.7° C bedeckt
Mi, 05.10. 10:00 11.5° C bedeckt
Mi, 05.10. 9:30 10.8° C bedeckt
Mi, 05.10. 9:00 10.6° C bedeckt
Mi, 05.10. 8:30 10.2° C bewölkt
Mi, 05.10. 8:00 9.8° C Nebel
Ortszeit Relative Feuchte Sichtweite
Mi, 05.10. 8:00 98% 10 km
Mi, 05.10. 2:00 97% 8 km
Di, 04.10. 20:00 80% 40 km
Di, 04.10. 14:00 73% 50 km
Di, 04.10. 8:00 100% 100 m
Di, 04.10. 2:00 99% 0.4 km
Mo, 03.10. 20:00 81% 50 km
Mo, 03.10. 14:00 84% 55 km
Ortszeit Relative Feuchte Sichtweite
Mi, 05.10. 11:00 88% 30 km
Mi, 05.10. 10:50 88% -
Mi, 05.10. 10:40 89% -
Mi, 05.10. 10:30 93% 26 km
Mi, 05.10. 10:20 93% -
Mi, 05.10. 10:10 94% -
Mi, 05.10. 10:00 94% 23 km
Mi, 05.10. 9:30 95% 14 km
Mi, 05.10. 9:00 97% 17 km
Mi, 05.10. 8:30 97% 15 km
Mi, 05.10. 8:00 98% 10 km
Ortszeit Niederschlagsmenge Niederschlagsart
Mi, 05.10. 8:00 0.0 l/m2 in 12 Std. -
Mi, 05.10. 2:00 0.0 l/m2 in 6 Std. -
Di, 04.10. 20:00 0.1 l/m2 in 12 Std. -
Di, 04.10. 14:00 0.1 l/m2 in 6 Std. -
Di, 04.10. 8:00 0.1 l/m2 in 12 Std. -
Di, 04.10. 2:00 0.0 l/m2 in 6 Std. -
Mo, 03.10. 20:00 0.1 l/m2 in 12 Std. -
Mo, 03.10. 14:00 0.1 l/m2 in 6 Std. -
Ortszeit Niederschlagsmenge Niederschlagsart
Mi, 05.10. 11:00 0.0 l/m2 in 1 Std. -
Mi, 05.10. 10:50 keine Meldung -
Mi, 05.10. 10:40 keine Meldung -
Mi, 05.10. 10:30 0.0 l/m2 in 1 Std. -
Mi, 05.10. 10:20 keine Meldung -
Mi, 05.10. 10:10 keine Meldung -
Mi, 05.10. 10:00 0.0 l/m2 in 1 Std. -
Mi, 05.10. 9:30 0.0 l/m2 in 1 Std. -
Mi, 05.10. 9:00 0.0 l/m2 in 1 Std. -
Mi, 05.10. 8:30 0.0 l/m2 in 1 Std. -
Mi, 05.10. 8:00 0.0 l/m2 in 1 Std. -
Ortszeit Stärke Spitze Richtung
km/h Bft. km/h Grad Sektor
Mi, 05.10. 8:00 7 2 22 220° SW
Mi, 05.10. 2:00 9 2 13 250° W
Di, 04.10. 20:00 6 1 26 160° S
Di, 04.10. 14:00 9 2 15 230° SW
Di, 04.10. 8:00 4 1 14 130° SO
Di, 04.10. 2:00 6 1 15 30° NO
Mo, 03.10. 20:00 9 2 17 40° NO
Mo, 03.10. 14:00 6 1 11 340° N
Ortszeit Stärke Spitze Richtung
km/h Bft. km/h Grad Sektor
Mi, 05.10. 11:00 24 4 37 220° SW
Mi, 05.10. 10:50 24 4 - 220° SW
Mi, 05.10. 10:40 28 4 - 210° SW
Mi, 05.10. 10:30 24 4 35 230° SW
Mi, 05.10. 10:20 24 4 - 230° SW
Mi, 05.10. 10:10 20 4 - 230° SW
Mi, 05.10. 10:00 19 3 31 230° SW
Mi, 05.10. 9:30 14 3 18 240° SW
Mi, 05.10. 9:00 11 2 17 230° SW
Mi, 05.10. 8:30 11 2 15 250° W
Mi, 05.10. 8:00 7 2 11 220° SW
Ortszeit Untergrenze Bedeckung Gattung
total tief tief mittel hoch
Mi, 05.10. 8:00 750 m 8/8 8/8 - - -
Mi, 05.10. 2:00 - 0/8 0/8 - - -
Di, 04.10. 20:00 10500 m 1/8 0/8 - - -
Di, 04.10. 14:00 10500 m 5/8 0/8 - - -
Di, 04.10. 8:00 <30 m 8/8 0/8 - - -
Di, 04.10. 2:00 <30 m 7/8 0/8 - - -
Mo, 03.10. 20:00 5400 m 8/8 8/8 - - -
Mo, 03.10. 14:00 7200 m 7/8 0/8 - - -
Ortszeit Bedeckungsgrad in Achtel und Wolkenuntergrenze
Mi, 05.10. 11:00 7(180m)
Mi, 05.10. 10:50 7(180m)
Mi, 05.10. 10:40 8
Mi, 05.10. 10:30 8(180m)
Mi, 05.10. 10:20 8(180m)
Mi, 05.10. 10:10 8
Mi, 05.10. 10:00 4(210m) 8(750m)
Mi, 05.10. 9:30 8(780m)
Mi, 05.10. 9:00 8(780m)
Mi, 05.10. 8:30 7(810m)
Mi, 05.10. 8:00 8(750m)
Ortszeit Luftdruck NN (hPa) Tendenz (hPa in 3 Std.)
Mi, 05.10. 8:00 1021 - 0,5
Mi, 05.10. 2:00 1022 - 0,3
Di, 04.10. 20:00 1021 - 0,1
Di, 04.10. 14:00 1022 - 0,6
Di, 04.10. 8:00 1024 - 0,4
Di, 04.10. 2:00 1025 - 1,1
Mo, 03.10. 20:00 1026 - 0,9
Mo, 03.10. 14:00 1028 - 0,5
Ortszeit Luftdruck NN (hPa) Tendenz (hPa in 3 Std.)
Mi, 05.10. 11:00 1021 + 0,4
Mi, 05.10. 10:50 1021 keine Meldung
Mi, 05.10. 10:40 1021 keine Meldung
Mi, 05.10. 10:30 1021 + 0,3
Mi, 05.10. 10:20 1021 keine Meldung
Mi, 05.10. 10:10 1021 keine Meldung
Mi, 05.10. 10:00 1021 + 0,1
Mi, 05.10. 9:30 1021 - 0,1
Mi, 05.10. 9:00 1021 0,0
Mi, 05.10. 8:30 1021 - 0,2
Mi, 05.10. 8:00 1021 - 0,5
Ortszeit Schneehöhe (cm)
Mi, 05.10. 8:00 0
Mi, 05.10. 2:00 0
Di, 04.10. 20:00 0
Di, 04.10. 14:00 0
Di, 04.10. 8:00 0
Di, 04.10. 2:00 0
Mo, 03.10. 20:00 0
Mo, 03.10. 14:00 0
Ortszeit Schneehöhe (cm)
Mi, 05.10. 11:00 0
Mi, 05.10. 10:50 0
Mi, 05.10. 10:40 0
Mi, 05.10. 10:30 0
Mi, 05.10. 10:20 0
Mi, 05.10. 10:10 0
Mi, 05.10. 10:00 0
Mi, 05.10. 9:30 0
Mi, 05.10. 9:00 0
Mi, 05.10. 8:30 0
Mi, 05.10. 8:00 0
Link zu dieser Seite / Seite empfehlen

Das Wetter in ...